createdAt,value
2023-04-20T00:01:33.914Z,6.83
2023-04-20T00:04:02.045Z,7.33
2023-04-20T00:06:32.322Z,9.17
2023-04-20T00:09:01.901Z,5.57
2023-04-20T00:11:29.646Z,6.67
2023-04-20T00:13:57.684Z,6.17
2023-04-20T00:16:25.519Z,5.57
2023-04-20T00:18:53.539Z,7.90
2023-04-20T00:21:24.186Z,8.23
2023-04-20T00:23:52.392Z,5.77
2023-04-20T00:26:22.239Z,6.93
2023-04-20T00:28:53.854Z,4.47
2023-04-20T00:31:22.109Z,7.43
2023-04-20T00:33:50.255Z,5.37
2023-04-20T00:36:18.116Z,7.43
2023-04-20T00:38:46.004Z,7.47
2023-04-20T00:41:13.869Z,6.40
2023-04-20T00:43:52.542Z,6.83
2023-04-20T00:46:20.564Z,6.30
2023-04-20T00:48:51.197Z,5.20
2023-04-20T00:51:19.551Z,6.47
2023-04-20T00:53:47.678Z,5.50
2023-04-20T00:56:16.437Z,3.83
2023-04-20T00:58:44.431Z,5.20
2023-04-20T01:01:17.568Z,6.20
2023-04-20T01:03:48.046Z,8.73
2023-04-20T01:06:16.685Z,6.60
2023-04-20T01:08:49.719Z,4.83
2023-04-20T01:11:18.078Z,4.63
2023-04-20T01:13:45.960Z,5.10
2023-04-20T01:16:15.345Z,5.20
2023-04-20T01:18:46.475Z,8.00
2023-04-20T01:21:15.347Z,6.50
2023-04-20T01:23:45.303Z,4.17
2023-04-20T01:26:15.443Z,7.50
2023-04-20T01:28:43.663Z,4.03
2023-04-20T01:31:12.413Z,5.43
2023-04-20T01:33:40.569Z,4.00
2023-04-20T01:36:09.347Z,4.97
2023-04-20T01:38:40.604Z,6.57
2023-04-20T01:41:10.902Z,6.63
2023-04-20T01:43:39.826Z,5.70
2023-04-20T01:46:07.865Z,5.17
2023-04-20T01:48:36.034Z,7.07
2023-04-20T01:51:06.198Z,6.43
2023-04-20T01:53:34.026Z,5.20
2023-04-20T01:56:02.071Z,7.10
2023-04-20T01:58:31.319Z,6.57
2023-04-20T02:00:59.273Z,5.83
2023-04-20T02:03:28.030Z,6.20
2023-04-20T02:05:55.999Z,4.73
2023-04-20T02:08:26.392Z,6.37
2023-04-20T02:10:54.111Z,4.53
2023-04-20T02:13:21.987Z,6.83
2023-04-20T02:15:51.331Z,5.63
2023-04-20T02:18:19.477Z,5.27
2023-04-20T02:20:48.931Z,5.37
2023-04-20T02:23:16.852Z,5.73
2023-04-20T02:25:44.734Z,3.53
2023-04-20T02:28:13.195Z,6.60
2023-04-20T02:30:40.992Z,5.80
2023-04-20T02:33:10.453Z,5.60
2023-04-20T02:35:38.250Z,7.57
2023-04-20T02:38:06.080Z,3.23
2023-04-20T02:40:34.178Z,4.23
2023-04-20T02:43:01.883Z,7.43
2023-04-20T02:45:30.822Z,4.93
2023-04-20T02:47:58.820Z,6.50
2023-04-20T02:50:31.505Z,6.60
2023-04-20T02:53:13.943Z,4.30
2023-04-20T02:55:42.502Z,6.00
2023-04-20T02:58:30.747Z,4.33
2023-04-20T03:01:19.643Z,6.93
2023-04-20T03:03:49.858Z,5.63
2023-04-20T03:06:19.501Z,5.93
2023-04-20T03:08:54.017Z,4.60
2023-04-20T03:11:40.639Z,5.43
2023-04-20T03:14:09.493Z,6.20
2023-04-20T03:16:37.627Z,4.23
2023-04-20T03:19:06.172Z,6.57
2023-04-20T03:21:35.614Z,4.87
2023-04-20T03:24:03.632Z,6.70
2023-04-20T03:26:31.685Z,8.17
2023-04-20T03:29:14.993Z,7.67
2023-04-20T03:31:42.918Z,5.50
2023-04-20T03:34:12.354Z,5.07
2023-04-20T03:36:42.427Z,5.37
2023-04-20T03:39:10.603Z,5.23
2023-04-20T03:41:38.442Z,8.37
2023-04-20T03:44:07.107Z,6.90
2023-04-20T03:46:34.927Z,6.67
2023-04-20T03:49:03.993Z,4.67
2023-04-20T03:51:32.375Z,4.37
2023-04-20T03:54:01.559Z,6.80
2023-04-20T03:56:30.367Z,4.53
2023-04-20T03:58:58.913Z,4.33
2023-04-20T04:01:28.224Z,8.37
2023-04-20T04:03:56.207Z,5.37
2023-04-20T04:06:24.710Z,6.47
2023-04-20T04:08:52.758Z,7.27
2023-04-20T04:11:22.051Z,6.30
2023-04-20T04:13:50.791Z,6.73
2023-04-20T04:16:19.447Z,4.60
2023-04-20T04:18:48.710Z,5.03
2023-04-20T04:21:16.739Z,9.47
2023-04-20T04:23:51.324Z,5.27
2023-04-20T04:26:31.830Z,5.80
2023-04-20T04:28:59.854Z,7.87
2023-04-20T04:31:28.608Z,8.83
2023-04-20T04:34:03.829Z,6.60
2023-04-20T04:36:38.748Z,5.97
2023-04-20T04:39:09.373Z,5.63
2023-04-20T04:41:40.430Z,8.80
2023-04-20T04:44:18.811Z,5.57
2023-04-20T04:46:47.577Z,7.47
2023-04-20T04:49:16.266Z,7.20
2023-04-20T04:51:44.464Z,5.80
2023-04-20T04:54:12.239Z,7.40
2023-04-20T04:56:41.574Z,6.13
2023-04-20T04:59:10.172Z,6.67
2023-04-20T05:01:38.231Z,6.40
2023-04-20T05:04:06.459Z,7.43
2023-04-20T05:06:34.615Z,6.73
2023-04-20T05:09:02.896Z,6.17
2023-04-20T05:11:31.708Z,6.57
2023-04-20T05:14:02.527Z,7.13
2023-04-20T05:16:30.621Z,6.20
2023-04-20T05:18:58.631Z,6.10
2023-04-20T05:21:26.616Z,7.03
2023-04-20T05:23:54.380Z,8.30
2023-04-20T05:26:22.285Z,7.90
2023-04-20T05:28:50.588Z,5.20
2023-04-20T05:31:20.191Z,6.60
2023-04-20T05:33:50.946Z,7.00
2023-04-20T05:36:19.182Z,7.47
2023-04-20T05:38:47.460Z,10.27
2023-04-20T05:41:15.514Z,8.23
2023-04-20T05:43:43.488Z,5.53
2023-04-20T05:46:11.418Z,7.73
2023-04-20T05:48:40.766Z,5.77
2023-04-20T05:51:08.596Z,8.60
2023-04-20T05:53:36.482Z,9.10
2023-04-20T05:56:04.542Z,5.57
2023-04-20T05:58:33.931Z,7.00
2023-04-20T06:01:02.651Z,8.43
2023-04-20T06:03:30.817Z,7.20
2023-04-20T06:06:00.824Z,7.23
2023-04-20T06:08:28.604Z,6.30
2023-04-20T06:10:57.205Z,5.40
2023-04-20T06:13:25.027Z,7.03
2023-04-20T06:15:54.112Z,6.77
2023-04-20T06:18:22.114Z,7.80
2023-04-20T06:20:50.442Z,8.13
2023-04-20T06:23:19.613Z,7.00
2023-04-20T06:25:47.916Z,7.87
2023-04-20T06:28:15.825Z,7.70
2023-04-20T06:30:43.993Z,6.70
2023-04-20T06:33:13.948Z,11.10
2023-04-20T06:35:41.659Z,7.73
2023-04-20T06:38:09.496Z,7.77
2023-04-20T06:40:39.151Z,8.70
2023-04-20T06:43:07.462Z,7.53
2023-04-20T06:45:35.781Z,8.33
2023-04-20T06:48:04.208Z,11.07
2023-04-20T06:50:32.733Z,6.97
2023-04-20T06:53:06.415Z,13.60
2023-04-20T06:55:35.177Z,8.10
2023-04-20T06:58:07.775Z,11.80
2023-04-20T07:00:36.568Z,8.77
2023-04-20T07:03:05.830Z,10.57
2023-04-20T07:05:34.948Z,11.53
2023-04-20T07:08:03.630Z,9.43
2023-04-20T07:10:31.679Z,13.13
2023-04-20T07:12:59.427Z,9.37
2023-04-20T07:15:29.124Z,8.63
2023-04-20T07:17:56.973Z,7.93
2023-04-20T07:20:25.079Z,8.33
2023-04-20T07:22:52.883Z,8.20
2023-04-20T07:25:20.703Z,10.07
2023-04-20T07:27:48.451Z,7.67
2023-04-20T07:30:16.460Z,8.97
2023-04-20T07:32:45.870Z,11.93
2023-04-20T07:35:13.686Z,8.90
2023-04-20T07:37:41.601Z,8.33
2023-04-20T07:40:10.579Z,9.13
2023-04-20T07:42:38.830Z,8.70
2023-04-20T07:45:07.732Z,12.60
2023-04-20T07:47:36.097Z,12.13
2023-04-20T07:50:06.973Z,12.80
2023-04-20T07:52:35.622Z,9.37
2023-04-20T07:55:03.500Z,9.77
2023-04-20T07:57:31.501Z,8.40
2023-04-20T07:59:59.244Z,11.67
2023-04-20T08:02:27.009Z,10.73
2023-04-20T08:04:55.154Z,13.83
2023-04-20T08:07:25.069Z,16.50
2023-04-20T08:09:52.920Z,7.53
2023-04-20T08:12:20.786Z,10.53
2023-04-20T08:14:48.862Z,11.07
2023-04-20T08:17:17.105Z,9.77
2023-04-20T08:19:46.063Z,10.47
2023-04-20T08:22:14.024Z,10.07
2023-04-20T08:24:43.094Z,11.07
2023-04-20T08:27:10.940Z,9.30
2023-04-20T08:29:39.684Z,9.47
2023-04-20T08:32:09.127Z,12.43
2023-04-20T08:34:39.246Z,7.63
2023-04-20T08:37:07.220Z,8.93
2023-04-20T08:39:34.879Z,7.00
2023-04-20T08:42:04.310Z,9.33
2023-04-20T08:44:32.715Z,9.33
2023-04-20T08:47:01.074Z,11.37
2023-04-20T08:49:30.592Z,10.40
2023-04-20T08:51:58.520Z,6.70
2023-04-20T08:54:26.625Z,8.40
2023-04-20T08:56:55.456Z,7.77
2023-04-20T08:59:24.825Z,8.63
2023-04-20T09:01:52.689Z,9.97
2023-04-20T09:04:22.565Z,7.07
2023-04-20T09:06:52.859Z,8.07
2023-04-20T09:09:23.092Z,9.43
2023-04-20T09:12:02.093Z,10.63
2023-04-20T09:14:32.672Z,8.30
2023-04-20T09:17:02.198Z,10.30
2023-04-20T09:19:31.302Z,9.73
2023-04-20T09:22:03.790Z,8.77
2023-04-20T09:24:33.573Z,8.30
2023-04-20T09:27:01.947Z,8.80
2023-04-20T09:29:32.029Z,8.60
2023-04-20T09:31:59.857Z,9.53
2023-04-20T09:34:28.207Z,10.27
2023-04-20T09:36:57.681Z,10.80
2023-04-20T09:39:26.837Z,11.10
2023-04-20T09:41:54.742Z,10.37
2023-04-20T09:44:22.474Z,10.50
2023-04-20T09:46:51.904Z,10.47
2023-04-20T09:49:21.293Z,10.83
2023-04-20T09:51:50.445Z,11.93
2023-04-20T09:54:18.276Z,8.00
2023-04-20T09:56:46.970Z,9.57
2023-04-20T09:59:15.140Z,9.97
2023-04-20T10:01:42.923Z,10.33
2023-04-20T10:04:14.790Z,10.40
2023-04-20T10:06:53.990Z,11.07
2023-04-20T10:09:24.373Z,11.77
2023-04-20T10:11:55.099Z,12.63
2023-04-20T10:14:26.252Z,12.37
2023-04-20T10:17:02.405Z,13.93
2023-04-20T10:19:42.371Z,11.87
2023-04-20T10:22:11.611Z,12.60
2023-04-20T10:24:39.661Z,10.30
2023-04-20T10:27:17.929Z,10.30
2023-04-20T10:29:46.076Z,8.53
2023-04-20T10:32:22.947Z,9.17
2023-04-20T10:35:02.407Z,7.47
2023-04-20T10:37:32.413Z,8.30
2023-04-20T10:40:01.015Z,8.57
2023-04-20T10:42:29.638Z,7.60
2023-04-20T10:44:57.824Z,7.53
2023-04-20T10:47:30.251Z,6.60
2023-04-20T10:50:12.497Z,7.03
2023-04-20T10:52:41.854Z,6.50
2023-04-20T10:55:19.988Z,6.57
2023-04-20T10:57:48.556Z,5.53
2023-04-20T11:00:19.023Z,4.77
2023-04-20T11:02:48.952Z,4.40
2023-04-20T11:05:18.798Z,4.90
2023-04-20T11:07:53.756Z,5.53
2023-04-20T11:10:22.080Z,4.83
2023-04-20T11:12:50.254Z,5.40
2023-04-20T11:15:18.760Z,5.70
2023-04-20T11:17:47.061Z,5.10
2023-04-20T11:20:17.819Z,4.50
2023-04-20T11:22:58.507Z,4.77
2023-04-20T11:25:27.814Z,5.00
2023-04-20T11:28:07.451Z,4.57
2023-04-20T11:30:41.234Z,4.77
2023-04-20T11:33:09.637Z,4.80
2023-04-20T11:35:39.018Z,5.93
2023-04-20T11:38:08.744Z,4.70
2023-04-20T11:40:37.374Z,5.70
2023-04-20T11:43:05.625Z,5.30
2023-04-20T11:45:36.163Z,6.17
2023-04-20T11:48:06.387Z,6.00
2023-04-20T11:50:34.362Z,4.30
2023-04-20T11:53:02.416Z,12.43
2023-04-20T11:55:32.149Z,5.10
2023-04-20T11:57:59.925Z,4.67
2023-04-20T12:00:28.031Z,6.53
2023-04-20T12:02:56.078Z,6.63
2023-04-20T12:05:24.096Z,6.67
2023-04-20T12:07:52.034Z,5.30
2023-04-20T12:10:21.276Z,4.67
2023-04-20T12:12:50.510Z,3.37
2023-04-20T12:15:18.778Z,4.00
2023-04-20T12:17:46.634Z,3.90
2023-04-20T12:20:15.222Z,4.00
2023-04-20T12:22:43.018Z,4.53
2023-04-20T12:25:11.253Z,3.57
2023-04-20T12:27:39.047Z,4.03
2023-04-20T12:30:10.993Z,5.30
2023-04-20T12:32:39.533Z,3.57
2023-04-20T12:35:08.417Z,5.20
2023-04-20T12:37:37.002Z,4.27
2023-04-20T12:40:08.836Z,3.90
2023-04-20T12:42:36.589Z,4.47
2023-04-20T12:45:04.750Z,4.53
2023-04-20T12:47:33.935Z,4.43
2023-04-20T12:50:01.698Z,5.20
2023-04-20T12:52:30.184Z,6.40
2023-04-20T12:54:58.049Z,5.40
2023-04-20T12:57:25.909Z,5.83
2023-04-20T12:59:54.637Z,7.20
2023-04-20T13:02:23.201Z,6.93
2023-04-20T13:04:53.376Z,5.90
2023-04-20T13:07:21.246Z,5.63
2023-04-20T13:09:48.994Z,4.60
2023-04-20T13:12:16.913Z,5.00
2023-04-20T13:14:44.836Z,4.93
2023-04-20T13:17:12.552Z,5.83
2023-04-20T13:19:40.525Z,5.37
2023-04-20T13:22:11.825Z,6.00
2023-04-20T13:24:45.492Z,5.03
2023-04-20T13:33:02.159Z,6.90
2023-04-20T13:35:30.261Z,8.53
2023-04-20T13:37:59.949Z,5.90
2023-04-20T13:40:27.716Z,8.37
2023-04-20T13:42:55.906Z,5.63
2023-04-20T13:45:24.099Z,5.83
2023-04-20T13:47:51.993Z,7.47
2023-04-20T13:50:19.968Z,7.37
2023-04-20T13:52:47.942Z,6.67
2023-04-20T13:55:20.240Z,6.90
2023-04-20T13:57:48.304Z,6.53
2023-04-20T14:00:16.608Z,5.97
2023-04-20T14:02:44.562Z,6.83
2023-04-20T14:05:12.813Z,8.20
2023-04-20T14:07:40.829Z,7.40
2023-04-20T14:10:10.189Z,6.93
2023-04-20T14:12:39.930Z,7.37
2023-04-20T14:15:08.651Z,7.10
2023-04-20T14:17:36.818Z,9.33
2023-04-20T14:20:05.121Z,7.83
2023-04-20T14:22:36.210Z,7.40
2023-04-20T14:25:04.649Z,6.57
2023-04-20T14:27:32.325Z,7.20
2023-04-20T14:30:01.727Z,8.17
2023-04-20T14:32:31.354Z,9.20
2023-04-20T14:34:59.538Z,8.97
2023-04-20T14:37:27.436Z,9.23
2023-04-20T14:39:55.583Z,9.30
2023-04-20T14:42:23.912Z,10.67
2023-04-20T14:44:52.076Z,10.50
2023-04-20T14:47:21.717Z,10.47
2023-04-20T14:49:49.467Z,9.07
2023-04-20T14:52:17.312Z,8.53
2023-04-20T14:54:45.064Z,9.63
2023-04-20T14:57:12.768Z,8.33
2023-04-20T14:59:41.338Z,7.97
2023-04-20T15:02:09.407Z,9.57
2023-04-20T15:04:38.652Z,7.30
2023-04-20T15:07:06.969Z,9.03
2023-04-20T15:09:34.807Z,11.40
2023-04-20T15:12:02.752Z,10.67
2023-04-20T15:14:30.855Z,9.97
2023-04-20T15:16:58.873Z,10.10
2023-04-20T15:19:26.905Z,8.83
2023-04-20T15:21:56.184Z,9.30
2023-04-20T15:24:24.188Z,10.73
2023-04-20T15:26:52.158Z,9.80
2023-04-20T15:29:20.722Z,8.57
2023-04-20T15:31:48.746Z,11.00
2023-04-20T15:34:17.300Z,8.40
2023-04-20T15:36:45.864Z,9.43
2023-04-20T15:39:15.079Z,10.17
2023-04-20T15:41:42.956Z,9.93
2023-04-20T15:44:10.765Z,9.27
2023-04-20T15:46:39.001Z,11.37
2023-04-20T15:49:07.120Z,9.47
2023-04-20T15:51:34.821Z,11.73
2023-04-20T15:54:02.634Z,8.17
2023-04-20T15:56:32.411Z,8.33
2023-04-20T15:59:00.394Z,7.87
2023-04-20T16:01:28.235Z,10.03
2023-04-20T16:03:56.275Z,9.27
2023-04-20T16:06:24.232Z,7.70
2023-04-20T16:08:54.072Z,7.77
2023-04-20T16:11:22.234Z,7.40
2023-04-20T16:13:51.698Z,6.20
2023-04-20T16:16:19.605Z,6.83
2023-04-20T16:18:48.080Z,6.40
2023-04-20T16:21:15.891Z,6.60
2023-04-20T16:23:43.627Z,6.40
2023-04-20T16:26:11.335Z,11.33
2023-04-20T16:28:39.302Z,6.87
2023-04-20T16:31:08.538Z,6.50
2023-04-20T16:33:37.906Z,6.67
2023-04-20T16:36:06.482Z,8.33
2023-04-20T16:38:34.751Z,5.43
2023-04-20T16:41:02.571Z,5.53
2023-04-20T16:43:30.412Z,9.77
2023-04-20T16:45:58.195Z,5.27
2023-04-20T16:48:27.596Z,8.87
2023-04-20T16:50:55.338Z,6.37
2023-04-20T16:53:23.191Z,6.03
2023-04-20T16:55:50.950Z,7.97
2023-04-20T16:58:18.897Z,7.97
2023-04-20T17:00:46.741Z,7.63
2023-04-20T17:03:15.068Z,8.80
2023-04-20T17:05:46.398Z,6.00
2023-04-20T17:08:14.404Z,8.93
2023-04-20T17:10:42.283Z,9.20
2023-04-20T17:13:10.031Z,7.60
2023-04-20T17:15:37.772Z,6.57
2023-04-20T17:18:07.033Z,6.50
2023-04-20T17:20:34.842Z,5.47
2023-04-20T17:23:04.112Z,6.30
2023-04-20T17:25:31.993Z,6.27
2023-04-20T17:27:59.855Z,6.07
2023-04-20T17:30:28.017Z,5.73
2023-04-20T17:32:57.224Z,5.93
2023-04-20T17:35:25.045Z,5.50
2023-04-20T17:37:53.161Z,5.20
2023-04-20T17:40:22.622Z,5.37
2023-04-20T17:42:50.548Z,5.40
2023-04-20T17:45:18.453Z,5.97
2023-04-20T17:47:46.234Z,8.03
2023-04-20T17:50:16.450Z,5.90
2023-04-20T17:52:44.577Z,8.97
2023-04-20T17:55:12.675Z,6.50
2023-04-20T17:57:41.944Z,7.97
2023-04-20T18:00:11.939Z,5.20
2023-04-20T18:02:40.438Z,6.70
2023-04-20T18:05:09.277Z,7.63
2023-04-20T18:07:37.049Z,6.60
2023-04-20T18:10:05.954Z,5.80
2023-04-20T18:12:33.876Z,5.73
2023-04-20T18:15:03.245Z,6.83
2023-04-20T18:17:31.085Z,5.33
2023-04-20T18:19:59.083Z,5.93
2023-04-20T18:22:26.953Z,6.47
2023-04-20T18:24:55.335Z,6.20
2023-04-20T18:27:23.043Z,6.67
2023-04-20T18:29:52.941Z,6.20
2023-04-20T18:32:22.524Z,7.30
2023-04-20T18:34:50.342Z,8.37
2023-04-20T18:37:18.210Z,6.40
2023-04-20T18:39:45.988Z,7.00
2023-04-20T18:42:13.794Z,8.37
2023-04-20T18:44:41.920Z,8.20
2023-04-20T18:47:09.810Z,11.40
2023-04-20T18:49:39.254Z,6.57
2023-04-20T18:52:07.142Z,7.13
2023-04-20T18:54:35.535Z,6.60
2023-04-20T18:57:03.622Z,8.17
2023-04-20T18:59:31.612Z,8.33
2023-04-20T19:01:59.453Z,6.60
2023-04-20T19:04:27.676Z,7.97
2023-04-20T19:06:56.947Z,7.07
2023-04-20T19:09:24.855Z,8.37
2023-04-20T19:11:52.680Z,7.87
2023-04-20T19:14:20.886Z,7.77
2023-04-20T19:16:48.881Z,9.50
2023-04-20T19:19:16.758Z,7.73
2023-04-20T19:21:44.508Z,8.07
2023-04-20T19:24:13.762Z,7.57
2023-04-20T19:26:41.625Z,7.90
2023-04-20T19:29:09.482Z,8.63
2023-04-20T19:31:39.976Z,7.73
2023-04-20T19:34:08.214Z,7.90
2023-04-20T19:36:36.138Z,7.93
2023-04-20T19:39:04.395Z,8.70
2023-04-20T19:41:33.933Z,7.73
2023-04-20T19:44:04.490Z,8.23
2023-04-20T19:46:32.312Z,9.07
2023-04-20T19:49:00.473Z,10.13
2023-04-20T19:51:28.567Z,10.70
2023-04-20T19:54:00.331Z,9.03
2023-04-20T19:56:28.251Z,9.20
2023-04-20T19:58:57.506Z,9.87
2023-04-20T20:01:25.332Z,9.97
2023-04-20T20:03:54.095Z,9.87
2023-04-20T20:06:22.776Z,11.80
2023-04-20T20:08:50.869Z,11.60
2023-04-20T20:11:18.682Z,10.13
2023-04-20T20:13:46.670Z,10.93
2023-04-20T20:16:16.207Z,11.33
2023-04-20T20:18:45.019Z,10.00
2023-04-20T20:21:12.731Z,10.27
2023-04-20T20:23:40.775Z,13.97
2023-04-20T20:26:09.365Z,13.73
2023-04-20T20:28:37.126Z,11.33
2023-04-20T20:31:05.205Z,12.03
2023-04-20T20:33:34.983Z,11.93
2023-04-20T20:36:04.195Z,14.17
2023-04-20T20:38:32.844Z,13.43
2023-04-20T20:41:00.700Z,14.90
2023-04-20T20:43:28.569Z,13.97
2023-04-20T20:45:56.263Z,15.17
2023-04-20T20:48:24.034Z,14.60
2023-04-20T20:50:53.157Z,17.63
2023-04-20T20:53:20.900Z,17.70
2023-04-20T20:55:48.680Z,16.30
2023-04-20T20:58:16.408Z,16.07
2023-04-20T21:00:46.934Z,18.40
2023-04-20T21:03:15.217Z,18.50
2023-04-20T21:05:43.346Z,20.17
2023-04-20T21:08:13.024Z,18.83
2023-04-20T21:10:40.908Z,19.80
2023-04-20T21:13:08.620Z,19.20
2023-04-20T21:15:36.362Z,21.87
2023-04-20T21:18:04.292Z,20.40
2023-04-20T21:20:32.056Z,21.67
2023-04-20T21:22:59.998Z,20.97
2023-04-20T21:25:29.279Z,20.87
2023-04-20T21:27:56.958Z,24.73
2023-04-20T21:30:24.830Z,21.43
2023-04-20T21:32:52.700Z,21.37
2023-04-20T21:35:20.662Z,21.87
2023-04-20T21:37:48.464Z,23.37
2023-04-20T21:40:16.379Z,23.77
2023-04-20T21:42:45.562Z,26.10
2023-04-20T21:45:13.423Z,23.63
2023-04-20T21:47:41.210Z,21.97
2023-04-20T21:50:09.379Z,21.33
2023-04-20T21:52:37.130Z,23.20
2023-04-20T21:55:05.096Z,24.53
2023-04-20T21:57:32.771Z,25.57
2023-04-20T22:00:01.955Z,23.23
2023-04-20T22:02:29.798Z,23.80
2023-04-20T22:04:58.010Z,22.80
2023-04-20T22:07:27.589Z,26.67
2023-04-20T22:09:55.812Z,25.27
2023-04-20T22:12:38.273Z,26.87
2023-04-20T22:15:13.386Z,26.40
2023-04-20T22:17:41.607Z,22.70
2023-04-20T22:20:11.719Z,27.10
2023-04-20T22:22:40.132Z,26.90
2023-04-20T22:25:09.686Z,26.00
2023-04-20T22:27:38.916Z,26.93
2023-04-20T22:30:09.323Z,25.77
2023-04-20T22:32:39.095Z,28.43
2023-04-20T22:35:07.921Z,24.20
2023-04-20T22:37:35.956Z,24.70
2023-04-20T22:40:05.735Z,29.40
2023-04-20T22:42:34.718Z,28.03
2023-04-20T22:45:02.770Z,29.97
2023-04-20T22:47:30.666Z,26.37
2023-04-20T22:49:59.862Z,26.50
2023-04-20T22:52:27.673Z,26.50
2023-04-20T22:54:55.473Z,29.03
2023-04-20T22:57:23.529Z,25.03
2023-04-20T22:59:51.422Z,28.23
2023-04-20T23:02:19.308Z,27.93
2023-04-20T23:04:47.316Z,27.43
2023-04-20T23:07:17.464Z,29.03
2023-04-20T23:09:45.667Z,28.30
2023-04-20T23:12:13.426Z,30.43
2023-04-20T23:14:42.308Z,30.17
2023-04-20T23:17:10.485Z,27.60
2023-04-20T23:19:38.574Z,27.00
2023-04-20T23:22:08.699Z,26.80
2023-04-20T23:24:37.927Z,29.20
2023-04-20T23:27:06.024Z,30.50
2023-04-20T23:29:34.002Z,33.27
2023-04-20T23:32:02.220Z,34.00
2023-04-20T23:34:30.020Z,28.67
2023-04-20T23:36:57.827Z,32.90
2023-04-20T23:39:25.590Z,31.67
2023-04-20T23:41:54.727Z,34.00
2023-04-20T23:44:22.487Z,34.87
2023-04-20T23:46:50.550Z,34.63
2023-04-20T23:49:18.823Z,34.93
2023-04-20T23:51:46.780Z,30.30
2023-04-20T23:54:14.634Z,34.80
2023-04-20T23:56:42.758Z,30.97
2023-04-20T23:59:11.938Z,28.90
